Absarokee, MT

10:43 PM MDT on October 24, 2014 (GMT -0600)
HADS STILLWATER RIVER NEAR ABSAROKEE MT US USGS | Change Station
CLOSE
Current Station
Personal Weather Station
Location: Absarokee, MT
Elevation: 3950 ft
Nearby Weather Stations

Elev 3950 ft 45.55 °N, 109.39 °W | Updated 1 hour ago

Partly Cloudy
Partly Cloudy
42 °F
Feels Like 42 °F
N
Wind Variable Wind from North
Gusts 0.0 mph

Today
High -- | Low -- °F
--% Chance of Precip.
Yesterday
High -- | Low -- °F
Precip. -- in
7:46 AM 6:16 PM
New Moon, 2% visible
Pressure 30.09 in
Visibility 10.0 miles
Clouds Scattered Clouds 14000 ft
Windchill 42 °F
Dew Point Not available.
Humidity Not available.
Rainfall -999.00 in
Snow Depth Not available.
UV 0 out of 12
Pollen 1.70 out of 12
Air Quality Not available.
Flu Activity No Activity
METAR KBIL 250353Z 02004KT 10SM SCT140 09/02 A3010 RMK AO2 SLP188 T00940017

More Conditions Fewer Conditions

Pressure 30.09 in
Visibility 10.0 miles
Clouds Scattered Clouds 14000 ft
Windchill 42 °F
Dew Point Not available.
Humidity Not available.
Rainfall -999.00 in
Snow Depth Not available.
UV 0 out of 12
Pollen 1.70 out of 12
Air Quality Not available.
Flu Activity No Activity
METAR KBIL 250353Z 02004KT 10SM SCT140 09/02 A3010 RMK AO2 SLP188 T00940017

More Conditions Fewer Conditions

10-Day Weather Forecast

Almanac

Astronomy

Oct. 24, 2014 Rise Set
Actual Time 7:46 AM MDT 6:16 PM MDT
Civil Twilight 7:15 AM MDT 6:47 PM MDT
Nautical Twilight 6:41 AM MDT 7:21 PM MDT
Astronomical Twilight 6:06 AM MDT 7:55 PM MDT
Moon 8:30 AM MDT (10/24) 6:56 PM MDT (10/24)
Length of Visible Light 11h 31m
Length of Day
10h 30m
Tomorrow will be 2m 58s shorter.
New Moon, 2% of the Moon is Illuminated
Oct 25
New Moon
Oct 30
First Quarter
Nov 6
Full
Nov 14
Last Quarter
Nov 22
New

Yesterday's Extremes

State Highs State Lows

Community

WunderPhotos

Upload Photos

1,764,784 photos uploaded!

Nearby

Snow Depth

Station Depth Elevation
Burnt Mountain 0 in 5880 ft
Fisher Creek 1 in 9100 ft
Box Canyon 0 in 6700 ft
Monument Peak 0 in 8850 ft
Northeast Entrance 0 in 7350 ft

Earthquake Activity

City Distance Mag. Time & Date
No recent earthquake activity has been reported nearby.
Minimum magnitude displayed is 2.5.

Coastal Water Temperatures

Place Temperature
No Stations Reporting

Nearby Weather Stations